sensor_id;sensor_type;location;lat;lon;timestamp;temperature;humidity
19168;DHT22;9716;53.114;18.040;2024-01-15T00:00:38;2.60;99.90
19168;DHT22;9716;53.114;18.040;2024-01-15T00:03:29;2.60;99.90
19168;DHT22;9716;53.114;18.040;2024-01-15T00:05:57;2.50;99.90
19168;DHT22;9716;53.114;18.040;2024-01-15T00:08:26;2.50;99.90
19168;DHT22;9716;53.114;18.040;2024-01-15T00:10:54;2.50;99.90
19168;DHT22;9716;53.114;18.040;2024-01-15T00:13:23;2.50;99.90
19168;DHT22;9716;53.114;18.040;2024-01-15T00:15:51;2.50;99.90
19168;DHT22;9716;53.114;18.040;2024-01-15T00:18:20;2.50;99.90
19168;DHT22;9716;53.114;18.040;2024-01-15T00:20:50;2.50;99.90
19168;DHT22;9716;53.114;18.040;2024-01-15T00:23:18;2.50;99.90
19168;DHT22;9716;53.114;18.040;2024-01-15T00:25:47;2.50;99.90
19168;DHT22;9716;53.114;18.040;2024-01-15T00:28:15;2.50;99.90
19168;DHT22;9716;53.114;18.040;2024-01-15T00:30:44;2.50;99.90
19168;DHT22;9716;53.114;18.040;2024-01-15T00:33:13;2.50;99.90
19168;DHT22;9716;53.114;18.040;2024-01-15T00:35:42;2.40;99.90
19168;DHT22;9716;53.114;18.040;2024-01-15T00:38:18;2.50;99.90
19168;DHT22;9716;53.114;18.040;2024-01-15T00:40:47;2.50;99.90
19168;DHT22;9716;53.114;18.040;2024-01-15T00:43:16;2.50;99.90
19168;DHT22;9716;53.114;18.040;2024-01-15T00:45:46;2.40;99.90
19168;DHT22;9716;53.114;18.040;2024-01-15T00:48:14;2.40;99.90
19168;DHT22;9716;53.114;18.040;2024-01-15T00:50:43;2.40;99.90
19168;DHT22;9716;53.114;18.040;2024-01-15T00:53:11;2.40;99.90
19168;DHT22;9716;53.114;18.040;2024-01-15T00:55:41;2.40;99.90
19168;DHT22;9716;53.114;18.040;2024-01-15T00:58:10;2.40;99.90
19168;DHT22;9716;53.114;18.040;2024-01-15T01:00:38;2.40;99.90
19168;DHT22;9716;53.114;18.040;2024-01-15T01:03:08;2.40;99.90
19168;DHT22;9716;53.114;18.040;2024-01-15T01:05:37;2.40;99.90
19168;DHT22;9716;53.114;18.040;2024-01-15T01:08:05;2.40;99.90
19168;DHT22;9716;53.114;18.040;2024-01-15T01:10:34;2.30;99.90
19168;DHT22;9716;53.114;18.040;2024-01-15T01:13:04;2.40;99.90
19168;DHT22;9716;53.114;18.040;2024-01-15T01:15:32;2.40;99.90
19168;DHT22;9716;53.114;18.040;2024-01-15T01:18:01;2.40;99.90
19168;DHT22;9716;53.114;18.040;2024-01-15T01:20:30;2.40;99.90
19168;DHT22;9716;53.114;18.040;2024-01-15T01:22:59;2.40;99.90
19168;DHT22;9716;53.114;18.040;2024-01-15T01:25:28;2.40;99.90
19168;DHT22;9716;53.114;18.040;2024-01-15T01:27:56;2.40;99.90
19168;DHT22;9716;53.114;18.040;2024-01-15T01:30:26;2.40;99.90
19168;DHT22;9716;53.114;18.040;2024-01-15T01:32:54;2.40;99.90
19168;DHT22;9716;53.114;18.040;2024-01-15T01:35:23;2.40;99.90
19168;DHT22;9716;53.114;18.040;2024-01-15T01:37:52;2.40;99.90
19168;DHT22;9716;53.114;18.040;2024-01-15T01:40:20;2.40;99.90
19168;DHT22;9716;53.114;18.040;2024-01-15T01:42:49;2.40;99.90
19168;DHT22;9716;53.114;18.040;2024-01-15T01:45:17;2.40;99.90
19168;DHT22;9716;53.114;18.040;2024-01-15T01:47:47;2.40;99.90
19168;DHT22;9716;53.114;18.040;2024-01-15T01:50:19;2.40;99.90
19168;DHT22;9716;53.114;18.040;2024-01-15T01:52:48;2.40;99.90
19168;DHT22;9716;53.114;18.040;2024-01-15T01:55:18;2.40;99.90
19168;DHT22;9716;53.114;18.040;2024-01-15T01:57:47;2.40;99.90
19168;DHT22;9716;53.114;18.040;2024-01-15T02:00:16;2.40;99.90
19168;DHT22;9716;53.114;18.040;2024-01-15T02:02:47;2.40;99.90
19168;DHT22;9716;53.114;18.040;2024-01-15T02:05:18;2.40;99.90
19168;DHT22;9716;53.114;18.040;2024-01-15T02:07:47;2.40;99.90
19168;DHT22;9716;53.114;18.040;2024-01-15T02:10:16;2.40;99.90
19168;DHT22;9716;53.114;18.040;2024-01-15T02:12:45;2.40;99.90
19168;DHT22;9716;53.114;18.040;2024-01-15T02:15:16;2.40;99.90
19168;DHT22;9716;53.114;18.040;2024-01-15T02:17:59;2.40;99.90
19168;DHT22;9716;53.114;18.040;2024-01-15T02:20:28;2.40;99.90
19168;DHT22;9716;53.114;18.040;2024-01-15T02:23:12;2.40;99.90
19168;DHT22;9716;53.114;18.040;2024-01-15T02:25:41;2.40;99.90
19168;DHT22;9716;53.114;18.040;2024-01-15T02:28:12;2.40;99.90
19168;DHT22;9716;53.114;18.040;2024-01-15T02:30:41;2.40;99.90
19168;DHT22;9716;53.114;18.040;2024-01-15T02:33:11;2.40;99.90
19168;DHT22;9716;53.114;18.040;2024-01-15T02:35:41;2.40;99.90
19168;DHT22;9716;53.114;18.040;2024-01-15T02:38:11;2.40;99.90
19168;DHT22;9716;53.114;18.040;2024-01-15T02:40:39;2.40;99.90
19168;DHT22;9716;53.114;18.040;2024-01-15T02:43:08;2.40;99.90
19168;DHT22;9716;53.114;18.040;2024-01-15T02:45:36;2.40;99.90
19168;DHT22;9716;53.114;18.040;2024-01-15T02:48:06;2.40;99.90
19168;DHT22;9716;53.114;18.040;2024-01-15T02:50:34;2.40;99.90
19168;DHT22;9716;53.114;18.040;2024-01-15T02:53:03;2.40;99.90
19168;DHT22;9716;53.114;18.040;2024-01-15T02:55:33;2.40;99.90
19168;DHT22;9716;53.114;18.040;2024-01-15T02:58:02;2.40;99.90
19168;DHT22;9716;53.114;18.040;2024-01-15T03:00:31;2.40;99.90
19168;DHT22;9716;53.114;18.040;2024-01-15T03:02:59;2.40;99.90
19168;DHT22;9716;53.114;18.040;2024-01-15T03:05:28;2.40;99.90
19168;DHT22;9716;53.114;18.040;2024-01-15T03:07:56;2.40;99.90
19168;DHT22;9716;53.114;18.040;2024-01-15T03:10:25;2.40;99.90
19168;DHT22;9716;53.114;18.040;2024-01-15T03:12:55;2.40;99.90
19168;DHT22;9716;53.114;18.040;2024-01-15T03:15:24;2.40;99.90
19168;DHT22;9716;53.114;18.040;2024-01-15T03:17:52;2.40;99.90
19168;DHT22;9716;53.114;18.040;2024-01-15T03:20:21;2.40;99.90
19168;DHT22;9716;53.114;18.040;2024-01-15T03:22:49;2.40;99.90
19168;DHT22;9716;53.114;18.040;2024-01-15T03:25:17;2.40;99.90
19168;DHT22;9716;53.114;18.040;2024-01-15T03:27:46;2.30;99.90
19168;DHT22;9716;53.114;18.040;2024-01-15T03:30:16;2.30;99.90
19168;DHT22;9716;53.114;18.040;2024-01-15T03:32:45;2.30;99.90
19168;DHT22;9716;53.114;18.040;2024-01-15T03:35:14;2.30;99.90
19168;DHT22;9716;53.114;18.040;2024-01-15T03:37:43;2.30;99.90
19168;DHT22;9716;53.114;18.040;2024-01-15T03:40:12;2.30;99.90
19168;DHT22;9716;53.114;18.040;2024-01-15T03:42:41;2.30;99.90
19168;DHT22;9716;53.114;18.040;2024-01-15T03:45:09;2.20;99.90
19168;DHT22;9716;53.114;18.040;2024-01-15T03:47:39;2.20;99.90
19168;DHT22;9716;53.114;18.040;2024-01-15T03:50:09;2.20;99.90
19168;DHT22;9716;53.114;18.040;2024-01-15T03:52:37;2.20;99.90
19168;DHT22;9716;53.114;18.040;2024-01-15T03:55:06;2.20;99.90
19168;DHT22;9716;53.114;18.040;2024-01-15T03:57:35;2.20;99.90
19168;DHT22;9716;53.114;18.040;2024-01-15T04:00:06;2.20;99.90
19168;DHT22;9716;53.114;18.040;2024-01-15T04:02:35;2.20;99.90
19168;DHT22;9716;53.114;18.040;2024-01-15T04:05:05;2.20;99.90
19168;DHT22;9716;53.114;18.040;2024-01-15T04:07:34;2.20;99.90
19168;DHT22;9716;53.114;18.040;2024-01-15T04:10:03;2.20;99.90
19168;DHT22;9716;53.114;18.040;2024-01-15T04:12:32;2.20;99.90
19168;DHT22;9716;53.114;18.040;2024-01-15T04:15:00;2.20;99.90
19168;DHT22;9716;53.114;18.040;2024-01-15T04:17:29;2.10;99.90
19168;DHT22;9716;53.114;18.040;2024-01-15T04:19:57;2.10;99.90
19168;DHT22;9716;53.114;18.040;2024-01-15T04:22:28;2.10;99.90
19168;DHT22;9716;53.114;18.040;2024-01-15T04:24:56;2.10;99.90
19168;DHT22;9716;53.114;18.040;2024-01-15T04:27:25;2.10;99.90
19168;DHT22;9716;53.114;18.040;2024-01-15T04:29:53;2.10;99.90
19168;DHT22;9716;53.114;18.040;2024-01-15T04:32:22;2.10;99.90
19168;DHT22;9716;53.114;18.040;2024-01-15T04:34:50;2.10;99.90
19168;DHT22;9716;53.114;18.040;2024-01-15T04:37:19;2.10;99.90
19168;DHT22;9716;53.114;18.040;2024-01-15T04:39:49;2.10;99.90
19168;DHT22;9716;53.114;18.040;2024-01-15T04:42:20;2.10;99.90
19168;DHT22;9716;53.114;18.040;2024-01-15T04:44:48;2.10;99.90
19168;DHT22;9716;53.114;18.040;2024-01-15T04:47:17;2.10;99.90
19168;DHT22;9716;53.114;18.040;2024-01-15T04:49:46;2.10;99.90
19168;DHT22;9716;53.114;18.040;2024-01-15T04:52:16;2.10;99.90
19168;DHT22;9716;53.114;18.040;2024-01-15T04:54:45;2.10;99.90
19168;DHT22;9716;53.114;18.040;2024-01-15T04:57:15;2.10;99.90
19168;DHT22;9716;53.114;18.040;2024-01-15T04:59:43;2.00;99.90
19168;DHT22;9716;53.114;18.040;2024-01-15T05:02:12;2.10;99.90
19168;DHT22;9716;53.114;18.040;2024-01-15T05:04:40;2.10;99.90
19168;DHT22;9716;53.114;18.040;2024-01-15T05:07:09;1.90;99.90
19168;DHT22;9716;53.114;18.040;2024-01-15T05:09:37;2.10;99.90
19168;DHT22;9716;53.114;18.040;2024-01-15T05:12:06;2.10;99.90
19168;DHT22;9716;53.114;18.040;2024-01-15T05:14:36;2.00;99.90
19168;DHT22;9716;53.114;18.040;2024-01-15T05:17:05;2.00;99.90
19168;DHT22;9716;53.114;18.040;2024-01-15T05:19:37;2.00;99.90
19168;DHT22;9716;53.114;18.040;2024-01-15T05:22:06;2.00;99.90
19168;DHT22;9716;53.114;18.040;2024-01-15T05:24:34;2.00;99.90
19168;DHT22;9716;53.114;18.040;2024-01-15T05:27:03;2.00;99.90
19168;DHT22;9716;53.114;18.040;2024-01-15T05:29:32;1.90;99.90
19168;DHT22;9716;53.114;18.040;2024-01-15T05:32:02;1.90;99.90
19168;DHT22;9716;53.114;18.040;2024-01-15T05:34:31;1.90;99.90
19168;DHT22;9716;53.114;18.040;2024-01-15T05:37:00;1.90;99.90
19168;DHT22;9716;53.114;18.040;2024-01-15T05:39:28;1.90;99.90
19168;DHT22;9716;53.114;18.040;2024-01-15T05:41:58;1.90;99.90
19168;DHT22;9716;53.114;18.040;2024-01-15T05:44:27;1.90;99.90
19168;DHT22;9716;53.114;18.040;2024-01-15T05:46:55;1.90;99.90
19168;DHT22;9716;53.114;18.040;2024-01-15T05:49:25;1.90;99.90
19168;DHT22;9716;53.114;18.040;2024-01-15T05:52:12;1.90;99.90
19168;DHT22;9716;53.114;18.040;2024-01-15T05:54:40;2.00;99.90
19168;DHT22;9716;53.114;18.040;2024-01-15T05:57:09;2.00;99.90
19168;DHT22;9716;53.114;18.040;2024-01-15T05:59:37;2.00;99.90
19168;DHT22;9716;53.114;18.040;2024-01-15T06:02:06;2.00;99.90
19168;DHT22;9716;53.114;18.040;2024-01-15T06:04:36;1.90;99.90
19168;DHT22;9716;53.114;18.040;2024-01-15T06:07:04;1.90;99.90
19168;DHT22;9716;53.114;18.040;2024-01-15T06:09:33;1.90;99.90
19168;DHT22;9716;53.114;18.040;2024-01-15T06:12:01;1.90;99.90
19168;DHT22;9716;53.114;18.040;2024-01-15T06:14:29;1.90;99.90
19168;DHT22;9716;53.114;18.040;2024-01-15T06:16:58;1.90;99.90
19168;DHT22;9716;53.114;18.040;2024-01-15T06:19:26;1.90;99.90
19168;DHT22;9716;53.114;18.040;2024-01-15T06:21:57;1.90;99.90
19168;DHT22;9716;53.114;18.040;2024-01-15T06:24:25;1.90;99.90
19168;DHT22;9716;53.114;18.040;2024-01-15T06:26:54;1.90;99.90
19168;DHT22;9716;53.114;18.040;2024-01-15T06:29:25;1.90;99.90
19168;DHT22;9716;53.114;18.040;2024-01-15T06:31:54;1.90;99.90
19168;DHT22;9716;53.114;18.040;2024-01-15T06:34:22;1.90;99.90
19168;DHT22;9716;53.114;18.040;2024-01-15T06:36:51;1.90;99.90
19168;DHT22;9716;53.114;18.040;2024-01-15T06:39:21;1.90;99.90
19168;DHT22;9716;53.114;18.040;2024-01-15T06:41:50;1.90;99.90
19168;DHT22;9716;53.114;18.040;2024-01-15T06:44:18;1.90;99.90
19168;DHT22;9716;53.114;18.040;2024-01-15T06:46:48;1.90;99.90
19168;DHT22;9716;53.114;18.040;2024-01-15T06:49:16;1.90;99.90
19168;DHT22;9716;53.114;18.040;2024-01-15T06:51:45;1.90;99.90
19168;DHT22;9716;53.114;18.040;2024-01-15T06:54:15;1.90;99.90
19168;DHT22;9716;53.114;18.040;2024-01-15T06:56:45;1.90;99.90
19168;DHT22;9716;53.114;18.040;2024-01-15T06:59:14;1.90;99.90
19168;DHT22;9716;53.114;18.040;2024-01-15T07:01:46;1.90;99.90
19168;DHT22;9716;53.114;18.040;2024-01-15T07:04:17;2.00;99.90
19168;DHT22;9716;53.114;18.040;2024-01-15T07:06:49;2.00;99.90
19168;DHT22;9716;53.114;18.040;2024-01-15T07:09:18;2.00;99.90
19168;DHT22;9716;53.114;18.040;2024-01-15T07:11:48;2.00;99.90
19168;DHT22;9716;53.114;18.040;2024-01-15T07:14:16;1.90;99.90
19168;DHT22;9716;53.114;18.040;2024-01-15T07:16:45;2.00;99.90
19168;DHT22;9716;53.114;18.040;2024-01-15T07:19:15;2.00;99.90
19168;DHT22;9716;53.114;18.040;2024-01-15T07:21:44;2.00;99.90
19168;DHT22;9716;53.114;18.040;2024-01-15T07:24:13;2.00;99.90
19168;DHT22;9716;53.114;18.040;2024-01-15T07:26:55;2.00;99.90
19168;DHT22;9716;53.114;18.040;2024-01-15T07:29:23;2.00;99.90
19168;DHT22;9716;53.114;18.040;2024-01-15T07:31:52;2.10;99.90
19168;DHT22;9716;53.114;18.040;2024-01-15T07:34:21;2.00;99.90
19168;DHT22;9716;53.114;18.040;2024-01-15T07:36:50;2.00;99.90
19168;DHT22;9716;53.114;18.040;2024-01-15T07:39:18;2.00;99.90
19168;DHT22;9716;53.114;18.040;2024-01-15T07:41:47;2.00;99.90
19168;DHT22;9716;53.114;18.040;2024-01-15T07:44:17;2.00;99.90
19168;DHT22;9716;53.114;18.040;2024-01-15T07:46:46;2.10;99.90
19168;DHT22;9716;53.114;18.040;2024-01-15T07:49:14;2.10;99.90
19168;DHT22;9716;53.114;18.040;2024-01-15T07:51:44;2.10;99.90
19168;DHT22;9716;53.114;18.040;2024-01-15T07:54:12;2.10;99.90
19168;DHT22;9716;53.114;18.040;2024-01-15T07:56:54;2.10;99.90
19168;DHT22;9716;53.114;18.040;2024-01-15T07:59:24;2.10;99.90
19168;DHT22;9716;53.114;18.040;2024-01-15T08:01:53;2.20;99.90
19168;DHT22;9716;53.114;18.040;2024-01-15T08:04:21;2.20;99.90
19168;DHT22;9716;53.114;18.040;2024-01-15T08:06:50;2.20;99.90
19168;DHT22;9716;53.114;18.040;2024-01-15T08:09:19;2.20;99.90
19168;DHT22;9716;53.114;18.040;2024-01-15T08:11:47;2.20;99.90
19168;DHT22;9716;53.114;18.040;2024-01-15T08:14:17;2.30;99.90
19168;DHT22;9716;53.114;18.040;2024-01-15T08:16:48;2.30;99.90
19168;DHT22;9716;53.114;18.040;2024-01-15T08:19:16;2.30;99.90
19168;DHT22;9716;53.114;18.040;2024-01-15T08:21:45;2.40;99.90
19168;DHT22;9716;53.114;18.040;2024-01-15T08:24:15;2.40;99.90
19168;DHT22;9716;53.114;18.040;2024-01-15T08:26:44;2.40;99.90
19168;DHT22;9716;53.114;18.040;2024-01-15T08:29:12;2.40;99.90
19168;DHT22;9716;53.114;18.040;2024-01-15T08:31:41;2.40;99.90
19168;DHT22;9716;53.114;18.040;2024-01-15T08:34:11;2.30;99.90
19168;DHT22;9716;53.114;18.040;2024-01-15T08:40:37;2.30;99.90
19168;DHT22;9716;53.114;18.040;2024-01-15T08:43:06;2.40;99.90
19168;DHT22;9716;53.114;18.040;2024-01-15T08:45:35;2.40;99.90
19168;DHT22;9716;53.114;18.040;2024-01-15T08:48:04;2.50;99.90
19168;DHT22;9716;53.114;18.040;2024-01-15T08:50:34;2.60;99.90
19168;DHT22;9716;53.114;18.040;2024-01-15T08:53:02;2.60;99.90
19168;DHT22;9716;53.114;18.040;2024-01-15T08:55:34;2.70;99.90
19168;DHT22;9716;53.114;18.040;2024-01-15T08:58:02;2.80;99.90
19168;DHT22;9716;53.114;18.040;2024-01-15T09:00:31;2.80;99.90
19168;DHT22;9716;53.114;18.040;2024-01-15T09:03:00;2.80;99.90
19168;DHT22;9716;53.114;18.040;2024-01-15T09:05:29;2.90;99.90
19168;DHT22;9716;53.114;18.040;2024-01-15T09:07:59;2.80;99.90
19168;DHT22;9716;53.114;18.040;2024-01-15T09:10:28;2.80;99.90
19168;DHT22;9716;53.114;18.040;2024-01-15T09:12:57;2.80;99.90
19168;DHT22;9716;53.114;18.040;2024-01-15T09:15:25;2.90;99.90
19168;DHT22;9716;53.114;18.040;2024-01-15T09:17:55;3.00;99.90
19168;DHT22;9716;53.114;18.040;2024-01-15T09:20:25;3.10;99.90
19168;DHT22;9716;53.114;18.040;2024-01-15T09:22:54;3.20;99.90
19168;DHT22;9716;53.114;18.040;2024-01-15T09:25:24;3.20;99.90
19168;DHT22;9716;53.114;18.040;2024-01-15T09:27:53;3.20;99.90
19168;DHT22;9716;53.114;18.040;2024-01-15T09:30:22;3.10;99.90
19168;DHT22;9716;53.114;18.040;2024-01-15T09:32:50;3.00;99.90
19168;DHT22;9716;53.114;18.040;2024-01-15T09:35:19;2.90;99.90
19168;DHT22;9716;53.114;18.040;2024-01-15T09:37:50;3.00;99.90
19168;DHT22;9716;53.114;18.040;2024-01-15T09:40:20;3.00;99.90
19168;DHT22;9716;53.114;18.040;2024-01-15T09:42:50;3.00;99.90
19168;DHT22;9716;53.114;18.040;2024-01-15T09:45:20;3.00;99.90
19168;DHT22;9716;53.114;18.040;2024-01-15T09:47:48;3.00;99.90
19168;DHT22;9716;53.114;18.040;2024-01-15T09:50:17;3.00;99.90
19168;DHT22;9716;53.114;18.040;2024-01-15T09:52:46;3.00;99.90
19168;DHT22;9716;53.114;18.040;2024-01-15T09:55:17;3.00;99.90
19168;DHT22;9716;53.114;18.040;2024-01-15T09:57:45;2.90;99.90
19168;DHT22;9716;53.114;18.040;2024-01-15T10:00:17;2.80;99.90
19168;DHT22;9716;53.114;18.040;2024-01-15T10:02:46;2.80;99.90
19168;DHT22;9716;53.114;18.040;2024-01-15T10:05:15;2.70;99.90
19168;DHT22;9716;53.114;18.040;2024-01-15T10:07:46;2.70;99.90
19168;DHT22;9716;53.114;18.040;2024-01-15T10:10:17;2.60;99.90
19168;DHT22;9716;53.114;18.040;2024-01-15T10:12:45;2.60;99.90
19168;DHT22;9716;53.114;18.040;2024-01-15T10:15:15;2.60;99.90
19168;DHT22;9716;53.114;18.040;2024-01-15T10:17:58;2.60;99.90
19168;DHT22;9716;53.114;18.040;2024-01-15T10:20:27;2.60;99.90
19168;DHT22;9716;53.114;18.040;2024-01-15T10:22:55;2.60;99.90
19168;DHT22;9716;53.114;18.040;2024-01-15T10:25:24;2.60;99.90
19168;DHT22;9716;53.114;18.040;2024-01-15T10:28:00;2.70;99.90
19168;DHT22;9716;53.114;18.040;2024-01-15T10:30:32;2.80;99.90
19168;DHT22;9716;53.114;18.040;2024-01-15T10:33:02;2.80;99.90
19168;DHT22;9716;53.114;18.040;2024-01-15T10:35:32;2.90;99.90
19168;DHT22;9716;53.114;18.040;2024-01-15T10:38:02;2.90;99.90
19168;DHT22;9716;53.114;18.040;2024-01-15T10:40:31;3.00;99.90
19168;DHT22;9716;53.114;18.040;2024-01-15T10:43:00;3.10;99.90
19168;DHT22;9716;53.114;18.040;2024-01-15T10:45:30;3.10;99.90
19168;DHT22;9716;53.114;18.040;2024-01-15T10:47:58;3.10;99.90
19168;DHT22;9716;53.114;18.040;2024-01-15T10:50:30;3.20;99.90
19168;DHT22;9716;53.114;18.040;2024-01-15T10:53:00;3.20;99.90
19168;DHT22;9716;53.114;18.040;2024-01-15T10:55:30;3.20;99.90
19168;DHT22;9716;53.114;18.040;2024-01-15T10:58:00;3.30;99.90
19168;DHT22;9716;53.114;18.040;2024-01-15T11:00:30;3.30;99.90
19168;DHT22;9716;53.114;18.040;2024-01-15T11:03:01;3.30;99.90
19168;DHT22;9716;53.114;18.040;2024-01-15T11:05:33;3.30;99.90
19168;DHT22;9716;53.114;18.040;2024-01-15T11:08:02;3.30;99.90
19168;DHT22;9716;53.114;18.040;2024-01-15T11:10:45;3.20;99.90
19168;DHT22;9716;53.114;18.040;2024-01-15T11:13:19;3.20;99.90
19168;DHT22;9716;53.114;18.040;2024-01-15T11:16:01;3.10;99.90
19168;DHT22;9716;53.114;18.040;2024-01-15T11:18:30;3.00;99.90
19168;DHT22;9716;53.114;18.040;2024-01-15T11:21:23;2.90;99.90
19168;DHT22;9716;53.114;18.040;2024-01-15T11:23:55;2.90;99.90
19168;DHT22;9716;53.114;18.040;2024-01-15T11:26:35;2.80;99.90
19168;DHT22;9716;53.114;18.040;2024-01-15T11:29:05;2.80;99.90
19168;DHT22;9716;53.114;18.040;2024-01-15T11:31:58;2.80;99.90
19168;DHT22;9716;53.114;18.040;2024-01-15T11:34:53;2.70;99.90
19168;DHT22;9716;53.114;18.040;2024-01-15T11:37:26;2.70;99.90
19168;DHT22;9716;53.114;18.040;2024-01-15T11:39:56;2.70;99.90
19168;DHT22;9716;53.114;18.040;2024-01-15T11:42:24;2.70;99.90
19168;DHT22;9716;53.114;18.040;2024-01-15T11:44:55;2.70;99.90
19168;DHT22;9716;53.114;18.040;2024-01-15T11:47:59;2.70;99.90
19168;DHT22;9716;53.114;18.040;2024-01-15T11:50:56;2.80;99.90
19168;DHT22;9716;53.114;18.040;2024-01-15T11:53:33;2.80;99.90
19168;DHT22;9716;53.114;18.040;2024-01-15T11:56:09;2.80;99.90
19168;DHT22;9716;53.114;18.040;2024-01-15T11:58:40;2.90;99.90
19168;DHT22;9716;53.114;18.040;2024-01-15T12:01:10;2.90;99.90
19168;DHT22;9716;53.114;18.040;2024-01-15T12:03:40;3.00;99.90
19168;DHT22;9716;53.114;18.040;2024-01-15T12:06:09;3.00;99.90
19168;DHT22;9716;53.114;18.040;2024-01-15T12:08:38;3.10;99.90
19168;DHT22;9716;53.114;18.040;2024-01-15T12:11:11;3.10;99.90
19168;DHT22;9716;53.114;18.040;2024-01-15T12:13:41;3.10;99.90
19168;DHT22;9716;53.114;18.040;2024-01-15T12:16:10;3.20;99.90
19168;DHT22;9716;53.114;18.040;2024-01-15T12:18:41;3.20;99.90
19168;DHT22;9716;53.114;18.040;2024-01-15T12:21:10;3.30;99.90
19168;DHT22;9716;53.114;18.040;2024-01-15T12:23:39;3.40;99.90
19168;DHT22;9716;53.114;18.040;2024-01-15T12:26:08;3.40;99.90
19168;DHT22;9716;53.114;18.040;2024-01-15T12:28:36;3.50;99.90
19168;DHT22;9716;53.114;18.040;2024-01-15T12:31:08;3.60;99.90
19168;DHT22;9716;53.114;18.040;2024-01-15T12:33:36;3.70;99.90
19168;DHT22;9716;53.114;18.040;2024-01-15T12:36:07;3.70;99.90
19168;DHT22;9716;53.114;18.040;2024-01-15T12:38:35;3.70;99.90
19168;DHT22;9716;53.114;18.040;2024-01-15T12:41:04;3.70;99.90
19168;DHT22;9716;53.114;18.040;2024-01-15T12:43:32;3.70;99.90
19168;DHT22;9716;53.114;18.040;2024-01-15T12:46:01;3.70;99.90
19168;DHT22;9716;53.114;18.040;2024-01-15T12:48:30;3.60;99.90
19168;DHT22;9716;53.114;18.040;2024-01-15T12:50:58;3.60;99.90
19168;DHT22;9716;53.114;18.040;2024-01-15T12:53:28;3.70;99.90
19168;DHT22;9716;53.114;18.040;2024-01-15T12:55:57;3.60;99.90
19168;DHT22;9716;53.114;18.040;2024-01-15T12:58:25;3.50;99.90
19168;DHT22;9716;53.114;18.040;2024-01-15T13:00:54;3.50;99.90
19168;DHT22;9716;53.114;18.040;2024-01-15T13:03:24;3.50;99.90
19168;DHT22;9716;53.114;18.040;2024-01-15T13:05:56;3.50;99.90
19168;DHT22;9716;53.114;18.040;2024-01-15T13:08:24;3.40;99.90
19168;DHT22;9716;53.114;18.040;2024-01-15T13:10:57;3.40;99.90
19168;DHT22;9716;53.114;18.040;2024-01-15T13:13:25;3.30;99.90
19168;DHT22;9716;53.114;18.040;2024-01-15T13:15:54;3.30;99.90
19168;DHT22;9716;53.114;18.040;2024-01-15T13:18:23;3.30;99.90
19168;DHT22;9716;53.114;18.040;2024-01-15T13:20:51;3.20;99.90
19168;DHT22;9716;53.114;18.040;2024-01-15T13:23:21;3.20;99.90
19168;DHT22;9716;53.114;18.040;2024-01-15T13:25:49;3.10;99.90
19168;DHT22;9716;53.114;18.040;2024-01-15T13:28:19;3.00;99.90
19168;DHT22;9716;53.114;18.040;2024-01-15T13:30:50;3.00;99.90
19168;DHT22;9716;53.114;18.040;2024-01-15T13:33:18;2.90;99.90
19168;DHT22;9716;53.114;18.040;2024-01-15T13:35:47;2.80;99.90
19168;DHT22;9716;53.114;18.040;2024-01-15T13:38:17;2.80;99.90
19168;DHT22;9716;53.114;18.040;2024-01-15T13:40:46;2.80;99.90
19168;DHT22;9716;53.114;18.040;2024-01-15T13:43:14;2.70;99.90
19168;DHT22;9716;53.114;18.040;2024-01-15T13:45:44;2.60;99.90
19168;DHT22;9716;53.114;18.040;2024-01-15T13:48:13;2.60;99.90
19168;DHT22;9716;53.114;18.040;2024-01-15T13:50:42;2.50;99.90
19168;DHT22;9716;53.114;18.040;2024-01-15T13:53:10;2.50;99.90
19168;DHT22;9716;53.114;18.040;2024-01-15T13:55:39;2.40;99.90
19168;DHT22;9716;53.114;18.040;2024-01-15T13:58:07;2.40;99.90
19168;DHT22;9716;53.114;18.040;2024-01-15T14:00:36;2.40;99.90
19168;DHT22;9716;53.114;18.040;2024-01-15T14:03:05;2.40;99.90
19168;DHT22;9716;53.114;18.040;2024-01-15T14:05:35;2.50;99.90
19168;DHT22;9716;53.114;18.040;2024-01-15T14:08:04;2.50;99.90
19168;DHT22;9716;53.114;18.040;2024-01-15T14:10:32;2.60;99.90
19168;DHT22;9716;53.114;18.040;2024-01-15T14:13:01;2.70;99.90
19168;DHT22;9716;53.114;18.040;2024-01-15T14:15:29;2.80;99.90
19168;DHT22;9716;53.114;18.040;2024-01-15T14:17:59;2.90;99.90
19168;DHT22;9716;53.114;18.040;2024-01-15T14:20:30;2.90;99.90
19168;DHT22;9716;53.114;18.040;2024-01-15T14:22:59;3.00;99.90
19168;DHT22;9716;53.114;18.040;2024-01-15T14:25:29;3.00;99.90
19168;DHT22;9716;53.114;18.040;2024-01-15T14:27:58;3.10;99.90
19168;DHT22;9716;53.114;18.040;2024-01-15T14:30:27;3.10;99.90
19168;DHT22;9716;53.114;18.040;2024-01-15T14:32:55;3.10;99.90
19168;DHT22;9716;53.114;18.040;2024-01-15T14:35:24;3.10;99.90
19168;DHT22;9716;53.114;18.040;2024-01-15T14:37:53;3.10;99.90
19168;DHT22;9716;53.114;18.040;2024-01-15T14:40:22;3.00;99.90
19168;DHT22;9716;53.114;18.040;2024-01-15T14:42:50;3.00;99.90
19168;DHT22;9716;53.114;18.040;2024-01-15T14:45:20;2.90;99.90
19168;DHT22;9716;53.114;18.040;2024-01-15T14:47:49;2.90;99.90
19168;DHT22;9716;53.114;18.040;2024-01-15T14:50:18;2.80;99.90
19168;DHT22;9716;53.114;18.040;2024-01-15T14:52:46;2.80;99.90
19168;DHT22;9716;53.114;18.040;2024-01-15T14:55:17;2.80;99.90
19168;DHT22;9716;53.114;18.040;2024-01-15T14:57:45;2.70;99.90
19168;DHT22;9716;53.114;18.040;2024-01-15T15:00:14;2.70;99.90
19168;DHT22;9716;53.114;18.040;2024-01-15T15:02:44;2.60;99.90
19168;DHT22;9716;53.114;18.040;2024-01-15T15:05:13;2.60;99.90
19168;DHT22;9716;53.114;18.040;2024-01-15T15:07:44;2.60;99.90
19168;DHT22;9716;53.114;18.040;2024-01-15T15:10:12;2.50;99.90
19168;DHT22;9716;53.114;18.040;2024-01-15T15:12:43;2.50;99.90
19168;DHT22;9716;53.114;18.040;2024-01-15T15:15:12;2.50;99.90
19168;DHT22;9716;53.114;18.040;2024-01-15T15:17:46;2.50;99.90
19168;DHT22;9716;53.114;18.040;2024-01-15T15:20:15;2.40;99.90
19168;DHT22;9716;53.114;18.040;2024-01-15T15:22:44;2.50;99.90
19168;DHT22;9716;53.114;18.040;2024-01-15T15:25:12;2.40;99.90
19168;DHT22;9716;53.114;18.040;2024-01-15T15:27:42;2.40;99.90
19168;DHT22;9716;53.114;18.040;2024-01-15T15:30:11;2.40;99.90
19168;DHT22;9716;53.114;18.040;2024-01-15T15:32:40;2.40;99.90
19168;DHT22;9716;53.114;18.040;2024-01-15T15:35:09;2.30;99.90
19168;DHT22;9716;53.114;18.040;2024-01-15T15:37:38;2.30;99.90
19168;DHT22;9716;53.114;18.040;2024-01-15T15:40:07;2.30;99.90
19168;DHT22;9716;53.114;18.040;2024-01-15T15:42:38;2.30;99.90
19168;DHT22;9716;53.114;18.040;2024-01-15T15:45:09;2.30;99.90
19168;DHT22;9716;53.114;18.040;2024-01-15T15:47:37;2.30;99.90
19168;DHT22;9716;53.114;18.040;2024-01-15T15:50:07;2.20;99.90
19168;DHT22;9716;53.114;18.040;2024-01-15T15:52:36;2.20;99.90
19168;DHT22;9716;53.114;18.040;2024-01-15T15:55:05;2.20;99.90
19168;DHT22;9716;53.114;18.040;2024-01-15T15:57:35;2.10;99.90
19168;DHT22;9716;53.114;18.040;2024-01-15T16:00:05;2.00;99.90
19168;DHT22;9716;53.114;18.040;2024-01-15T16:02:35;2.00;99.90
19168;DHT22;9716;53.114;18.040;2024-01-15T16:05:16;1.90;99.90